sensor_id;sensor_type;location;lat;lon;timestamp;temperature;humidity
23495;DHT22;26107;50.832;2.950;2023-09-08T00:03:34;23.90;99.90
23495;DHT22;26107;50.832;2.950;2023-09-08T00:18:34;23.60;99.90
23495;DHT22;26107;50.832;2.950;2023-09-08T00:33:35;23.80;99.90
23495;DHT22;26107;50.832;2.950;2023-09-08T00:48:36;23.60;99.90
23495;DHT22;26107;50.832;2.950;2023-09-08T01:03:40;23.60;99.90
23495;DHT22;26107;50.832;2.950;2023-09-08T01:18:40;23.80;99.90
23495;DHT22;26107;50.832;2.950;2023-09-08T01:33:41;23.60;99.90
23495;DHT22;26107;50.832;2.950;2023-09-08T01:48:42;23.30;99.90
23495;DHT22;26107;50.832;2.950;2023-09-08T02:03:42;23.00;99.90
23495;DHT22;26107;50.832;2.950;2023-09-08T02:18:43;22.90;99.90
23495;DHT22;26107;50.832;2.950;2023-09-08T02:33:46;22.70;99.90
23495;DHT22;26107;50.832;2.950;2023-09-08T02:48:47;22.40;99.90
23495;DHT22;26107;50.832;2.950;2023-09-08T03:03:47;22.60;99.90
23495;DHT22;26107;50.832;2.950;2023-09-08T03:18:48;22.80;99.90
23495;DHT22;26107;50.832;2.950;2023-09-08T03:33:49;22.50;99.90
23495;DHT22;26107;50.832;2.950;2023-09-08T03:48:49;22.70;99.90
23495;DHT22;26107;50.832;2.950;2023-09-08T04:03:50;22.60;99.90
23495;DHT22;26107;50.832;2.950;2023-09-08T04:18:50;22.50;99.90
23495;DHT22;26107;50.832;2.950;2023-09-08T04:33:53;22.40;99.90
23495;DHT22;26107;50.832;2.950;2023-09-08T04:48:54;22.20;99.90
23495;DHT22;26107;50.832;2.950;2023-09-08T05:03:54;22.10;99.90
23495;DHT22;26107;50.832;2.950;2023-09-08T05:18:55;22.00;99.90
23495;DHT22;26107;50.832;2.950;2023-09-08T05:33:55;21.70;99.90
23495;DHT22;26107;50.832;2.950;2023-09-08T05:48:56;21.70;99.90
23495;DHT22;26107;50.832;2.950;2023-09-08T06:03:59;21.60;99.90
23495;DHT22;26107;50.832;2.950;2023-09-08T06:18:59;21.80;99.90
23495;DHT22;26107;50.832;2.950;2023-09-08T06:34:03;21.60;99.90
23495;DHT22;26107;50.832;2.950;2023-09-08T06:49:05;21.80;99.90
23495;DHT22;26107;50.832;2.950;2023-09-08T07:04:06;21.70;99.90
23495;DHT22;26107;50.832;2.950;2023-09-08T07:19:06;22.30;99.90
23495;DHT22;26107;50.832;2.950;2023-09-08T07:34:07;22.20;99.90
23495;DHT22;26107;50.832;2.950;2023-09-08T07:49:07;22.80;99.90
23495;DHT22;26107;50.832;2.950;2023-09-08T08:04:08;23.30;99.90
23495;DHT22;26107;50.832;2.950;2023-09-08T08:19:08;23.40;99.90
23495;DHT22;26107;50.832;2.950;2023-09-08T08:34:09;23.90;99.90
23495;DHT22;26107;50.832;2.950;2023-09-08T08:49:10;24.20;99.90
23495;DHT22;26107;50.832;2.950;2023-09-08T09:04:13;24.40;99.90
23495;DHT22;26107;50.832;2.950;2023-09-08T09:19:20;24.40;99.90
23495;DHT22;26107;50.832;2.950;2023-09-08T09:34:33;24.60;99.90
23495;DHT22;26107;50.832;2.950;2023-09-08T09:49:40;25.10;99.90
23495;DHT22;26107;50.832;2.950;2023-09-08T10:04:43;25.30;99.90
23495;DHT22;26107;50.832;2.950;2023-09-08T10:19:46;25.50;99.90
23495;DHT22;26107;50.832;2.950;2023-09-08T10:34:51;25.80;99.90
23495;DHT22;26107;50.832;2.950;2023-09-08T10:49:53;25.90;99.90
23495;DHT22;26107;50.832;2.950;2023-09-08T11:04:58;26.40;99.90
23495;DHT22;26107;50.832;2.950;2023-09-08T11:20:02;26.50;99.90
23495;DHT22;26107;50.832;2.950;2023-09-08T11:35:09;26.70;99.90
23495;DHT22;26107;50.832;2.950;2023-09-08T11:50:10;27.00;99.90
23495;DHT22;26107;50.832;2.950;2023-09-08T12:20:25;27.40;99.90
23495;DHT22;26107;50.832;2.950;2023-09-08T12:35:28;27.60;99.90
23495;DHT22;26107;50.832;2.950;2023-09-08T12:50:31;27.90;99.90
23495;DHT22;26107;50.832;2.950;2023-09-08T13:05:32;28.00;99.90
23495;DHT22;26107;50.832;2.950;2023-09-08T13:20:35;28.50;99.90
23495;DHT22;26107;50.832;2.950;2023-09-08T13:35:35;29.00;99.90
23495;DHT22;26107;50.832;2.950;2023-09-08T13:50:37;29.10;99.90
23495;DHT22;26107;50.832;2.950;2023-09-08T14:05:38;29.00;99.90
23495;DHT22;26107;50.832;2.950;2023-09-08T14:20:41;29.20;99.90
23495;DHT22;26107;50.832;2.950;2023-09-08T14:35:44;29.60;99.90
23495;DHT22;26107;50.832;2.950;2023-09-08T14:50:46;29.90;99.90
23495;DHT22;26107;50.832;2.950;2023-09-08T15:05:47;30.00;99.90
23495;DHT22;26107;50.832;2.950;2023-09-08T15:20:54;29.30;99.90
23495;DHT22;26107;50.832;2.950;2023-09-08T15:35:54;29.90;99.90
23495;DHT22;26107;50.832;2.950;2023-09-08T15:50:55;31.80;99.90
23495;DHT22;26107;50.832;2.950;2023-09-08T16:05:55;34.20;99.90
23495;DHT22;26107;50.832;2.950;2023-09-08T16:20:58;32.40;99.90
23495;DHT22;26107;50.832;2.950;2023-09-08T16:36:01;30.90;99.90
23495;DHT22;26107;50.832;2.950;2023-09-08T16:51:04;30.80;99.90
23495;DHT22;26107;50.832;2.950;2023-09-08T17:06:07;32.00;99.90
23495;DHT22;26107;50.832;2.950;2023-09-08T17:21:10;36.10;98.80
23495;DHT22;26107;50.832;2.950;2023-09-08T17:36:11;35.20;97.50
23495;DHT22;26107;50.832;2.950;2023-09-08T17:51:11;33.40;99.20
23495;DHT22;26107;50.832;2.950;2023-09-08T18:06:12;30.80;99.90
23495;DHT22;26107;50.832;2.950;2023-09-08T18:21:13;27.30;99.90
23495;DHT22;26107;50.832;2.950;2023-09-08T18:36:16;27.50;99.90
23495;DHT22;26107;50.832;2.950;2023-09-08T18:51:16;27.10;99.90
23495;DHT22;26107;50.832;2.950;2023-09-08T19:06:17;26.60;99.90
23495;DHT22;26107;50.832;2.950;2023-09-08T19:21:18;26.20;99.90
23495;DHT22;26107;50.832;2.950;2023-09-08T19:36:20;25.90;99.90
23495;DHT22;26107;50.832;2.950;2023-09-08T19:51:23;25.60;99.90
23495;DHT22;26107;50.832;2.950;2023-09-08T20:06:24;25.40;99.90
23495;DHT22;26107;50.832;2.950;2023-09-08T20:21:24;25.20;99.90
23495;DHT22;26107;50.832;2.950;2023-09-08T20:36:27;25.10;99.90
23495;DHT22;26107;50.832;2.950;2023-09-08T20:51:28;24.90;99.90
23495;DHT22;26107;50.832;2.950;2023-09-08T21:06:28;24.70;99.90
23495;DHT22;26107;50.832;2.950;2023-09-08T21:21:29;24.50;99.90
23495;DHT22;26107;50.832;2.950;2023-09-08T21:36:29;24.10;99.90
23495;DHT22;26107;50.832;2.950;2023-09-08T21:51:32;23.80;99.90
23495;DHT22;26107;50.832;2.950;2023-09-08T22:06:32;23.40;99.90
23495;DHT22;26107;50.832;2.950;2023-09-08T22:21:38;23.30;99.90
23495;DHT22;26107;50.832;2.950;2023-09-08T22:36:38;23.30;99.90
23495;DHT22;26107;50.832;2.950;2023-09-08T22:51:39;23.30;99.90
23495;DHT22;26107;50.832;2.950;2023-09-08T23:06:40;23.30;99.90
23495;DHT22;26107;50.832;2.950;2023-09-08T23:21:43;23.20;99.90
23495;DHT22;26107;50.832;2.950;2023-09-08T23:36:44;23.10;99.90
23495;DHT22;26107;50.832;2.950;2023-09-08T23:51:47;23.00;99.90
